createdAt,value
2023-05-03T00:02:20.440Z,62.51
2023-05-03T00:04:54.931Z,62.32
2023-05-03T00:07:26.929Z,62.15
2023-05-03T00:10:01.263Z,62.20
2023-05-03T00:12:34.866Z,62.28
2023-05-03T00:15:12.738Z,62.24
2023-05-03T00:17:45.875Z,61.80
2023-05-03T00:20:19.718Z,61.52
2023-05-03T00:22:54.678Z,61.56
2023-05-03T00:25:27.195Z,61.62
2023-05-03T00:28:00.958Z,61.34
2023-05-03T00:30:32.550Z,61.29
2023-05-03T00:33:05.373Z,61.28
2023-05-03T00:35:35.997Z,61.32
2023-05-03T00:38:08.780Z,61.05
2023-05-03T00:40:43.591Z,61.18
2023-05-03T00:43:18.738Z,61.27
2023-05-03T00:45:59.404Z,61.36
2023-05-03T00:48:41.703Z,61.30
2023-05-03T00:51:18.898Z,61.49
2023-05-03T00:53:52.711Z,61.59
2023-05-03T00:56:26.574Z,61.73
2023-05-03T00:58:59.899Z,61.62
2023-05-03T01:01:32.284Z,61.81
2023-05-03T01:04:09.113Z,61.69
2023-05-03T01:06:51.391Z,61.74
2023-05-03T01:09:35.238Z,61.71
2023-05-03T01:12:19.030Z,61.68
2023-05-03T01:15:01.241Z,61.66
2023-05-03T01:17:43.401Z,61.77
2023-05-03T01:20:25.786Z,61.94
2023-05-03T01:23:23.552Z,62.32
2023-05-03T01:25:57.826Z,62.61
2023-05-03T01:28:30.570Z,62.52
2023-05-03T01:31:03.849Z,62.81
2023-05-03T01:33:41.182Z,62.89
2023-05-03T01:36:14.342Z,62.91
2023-05-03T01:38:48.865Z,63.09
2023-05-03T01:41:23.990Z,62.93
2023-05-03T01:43:59.087Z,63.11
2023-05-03T01:46:31.747Z,62.96
2023-05-03T01:49:04.085Z,62.90
2023-05-03T01:51:34.886Z,63.31
2023-05-03T01:54:09.731Z,63.70
2023-05-03T01:56:41.347Z,63.39
2023-05-03T01:59:14.342Z,63.83
2023-05-03T02:01:47.519Z,63.54
2023-05-03T02:04:20.530Z,63.36
2023-05-03T02:06:52.097Z,63.42
2023-05-03T02:09:25.972Z,63.54
2023-05-03T02:11:59.814Z,63.75
2023-05-03T02:14:33.626Z,63.98
2023-05-03T02:17:08.681Z,64.01
2023-05-03T02:19:41.516Z,64.08
2023-05-03T02:22:14.725Z,64.21
2023-05-03T02:24:55.078Z,64.27
2023-05-03T02:27:29.710Z,64.19
2023-05-03T02:30:00.364Z,64.22
2023-05-03T02:32:33.984Z,64.29
2023-05-03T02:35:12.682Z,64.21
2023-05-03T02:37:45.483Z,64.38
2023-05-03T02:40:18.722Z,64.51
2023-05-03T02:42:51.422Z,64.73
2023-05-03T02:45:24.154Z,64.63
2023-05-03T02:47:54.483Z,65.23
2023-05-03T02:50:27.625Z,65.24
2023-05-03T02:52:59.556Z,65.19
2023-05-03T02:55:32.108Z,65.10
2023-05-03T02:58:04.220Z,65.10
2023-05-03T03:00:37.405Z,65.28
2023-05-03T03:03:13.416Z,65.22
2023-05-03T03:05:44.984Z,65.47
2023-05-03T03:08:19.363Z,65.73
2023-05-03T03:10:51.907Z,65.59
2023-05-03T03:13:26.533Z,65.92
2023-05-03T03:16:04.208Z,66.15
2023-05-03T03:18:35.282Z,66.14
2023-05-03T03:21:05.780Z,65.99
2023-05-03T03:23:40.800Z,65.86
2023-05-03T03:26:12.282Z,65.97
2023-05-03T03:28:48.528Z,66.51
2023-05-03T03:31:19.318Z,66.74
2023-05-03T03:33:51.394Z,67.03
2023-05-03T03:36:23.921Z,67.53
2023-05-03T03:38:57.996Z,67.93
2023-05-03T03:41:29.695Z,68.13
2023-05-03T03:44:04.336Z,68.23
2023-05-03T03:46:37.764Z,68.66
2023-05-03T03:49:08.437Z,68.68
2023-05-03T03:51:41.290Z,68.94
2023-05-03T03:54:16.969Z,68.92
2023-05-03T03:56:50.674Z,69.16
2023-05-03T03:59:22.984Z,69.35
2023-05-03T04:01:56.350Z,69.40
2023-05-03T04:04:32.034Z,69.68
2023-05-03T04:07:05.902Z,69.86
2023-05-03T04:09:37.770Z,70.24
2023-05-03T04:12:11.781Z,70.25
2023-05-03T04:14:44.144Z,70.23
2023-05-03T04:17:16.911Z,70.34
2023-05-03T04:19:48.680Z,70.26
2023-05-03T04:22:20.874Z,70.41
2023-05-03T04:24:54.801Z,69.99
2023-05-03T04:27:26.517Z,70.06
2023-05-03T04:30:01.834Z,70.19
2023-05-03T04:32:36.968Z,70.17
2023-05-03T04:35:15.421Z,70.25
2023-05-03T04:37:53.833Z,70.12
2023-05-03T04:40:27.152Z,70.10
2023-05-03T04:43:08.939Z,70.18
2023-05-03T04:45:42.658Z,70.22
2023-05-03T04:48:18.639Z,70.07
2023-05-03T04:50:52.415Z,70.07
2023-05-03T04:53:24.935Z,70.04
2023-05-03T04:56:06.935Z,70.05
2023-05-03T04:58:41.596Z,69.76
2023-05-03T05:01:14.787Z,69.72
2023-05-03T05:03:57.113Z,69.51
2023-05-03T05:06:34.583Z,69.69
2023-05-03T05:09:22.124Z,69.50
2023-05-03T05:11:57.261Z,69.12
2023-05-03T05:14:34.974Z,69.45
2023-05-03T05:17:08.240Z,69.44
2023-05-03T05:19:40.819Z,69.20
2023-05-03T05:22:16.894Z,69.19
2023-05-03T05:24:56.122Z,69.35
2023-05-03T05:27:27.728Z,69.49
2023-05-03T05:29:59.667Z,69.64
2023-05-03T05:32:32.689Z,69.40
2023-05-03T05:35:08.827Z,69.43
2023-05-03T05:37:41.832Z,69.29
2023-05-03T05:40:18.048Z,69.57
2023-05-03T05:42:55.669Z,69.75
2023-05-03T05:45:29.679Z,69.88
2023-05-03T05:48:00.759Z,69.77
2023-05-03T05:50:33.092Z,69.81
2023-05-03T05:53:09.914Z,69.53
2023-05-03T05:55:46.141Z,69.25
2023-05-03T05:58:17.951Z,68.85
2023-05-03T06:00:56.645Z,68.60
2023-05-03T06:03:29.676Z,67.87
2023-05-03T06:06:01.665Z,67.90
2023-05-03T06:08:33.720Z,66.71
2023-05-03T06:11:08.021Z,66.65
2023-05-03T06:13:41.956Z,66.66
2023-05-03T06:16:21.669Z,66.01
2023-05-03T06:18:55.337Z,65.62
2023-05-03T06:21:27.760Z,64.94
2023-05-03T06:23:58.955Z,65.21
2023-05-03T06:26:32.115Z,64.55
2023-05-03T06:29:05.011Z,64.27
2023-05-03T06:31:37.739Z,64.13
2023-05-03T06:34:13.693Z,63.20
2023-05-03T06:36:48.792Z,62.97
2023-05-03T06:39:21.132Z,62.26
2023-05-03T06:41:53.256Z,62.00
2023-05-03T06:44:27.044Z,61.03
2023-05-03T06:47:00.942Z,60.36
2023-05-03T06:49:32.209Z,59.97
2023-05-03T06:52:09.503Z,60.50
2023-05-03T06:54:42.755Z,60.25
2023-05-03T06:57:14.898Z,59.76
2023-05-03T06:59:47.135Z,58.71
2023-05-03T07:02:18.561Z,58.10
2023-05-03T07:04:49.812Z,58.21
2023-05-03T07:07:30.116Z,58.53
2023-05-03T07:10:03.148Z,57.91
2023-05-03T07:12:34.023Z,56.50
2023-05-03T07:15:06.537Z,55.64
2023-05-03T07:17:38.950Z,55.90
2023-05-03T07:20:13.968Z,56.01
2023-05-03T07:22:47.702Z,55.26
2023-05-03T07:25:20.772Z,53.41
2023-05-03T07:27:54.074Z,52.80
2023-05-03T07:30:26.880Z,52.46
2023-05-03T07:33:00.966Z,52.42
2023-05-03T07:35:33.057Z,52.15
2023-05-03T07:38:07.535Z,52.17
2023-05-03T07:40:41.706Z,52.04
2023-05-03T07:43:16.466Z,51.49
2023-05-03T07:45:50.086Z,51.28
2023-05-03T07:48:23.427Z,50.91
2023-05-03T07:50:55.985Z,49.47
2023-05-03T07:53:27.772Z,49.76
2023-05-03T07:56:00.144Z,50.79
2023-05-03T07:58:40.463Z,51.09
2023-05-03T08:01:14.897Z,51.61
2023-05-03T08:03:51.346Z,50.94
2023-05-03T08:06:24.516Z,50.51
2023-05-03T08:08:59.984Z,49.17
2023-05-03T08:11:32.769Z,49.31
2023-05-03T08:14:05.758Z,50.18
2023-05-03T08:16:37.510Z,50.12
2023-05-03T08:19:09.110Z,49.69
2023-05-03T08:21:45.003Z,49.61
2023-05-03T08:24:16.375Z,48.39
2023-05-03T08:26:49.262Z,46.56
2023-05-03T08:29:22.080Z,46.30
2023-05-03T08:31:56.551Z,46.45
2023-05-03T08:34:33.340Z,46.71
2023-05-03T08:37:05.934Z,46.30
2023-05-03T08:39:37.186Z,46.65
2023-05-03T08:42:12.135Z,46.37
2023-05-03T08:44:51.077Z,47.02
2023-05-03T08:47:24.309Z,46.45
2023-05-03T08:49:58.763Z,45.92
2023-05-03T08:52:30.000Z,45.52
2023-05-03T08:55:02.815Z,46.25
2023-05-03T08:57:36.800Z,46.06
2023-05-03T09:00:15.921Z,45.67
2023-05-03T09:02:51.117Z,46.08
2023-05-03T09:05:40.940Z,45.69
2023-05-03T09:08:16.909Z,45.51
2023-05-03T09:10:49.741Z,44.19
2023-05-03T09:13:20.680Z,44.85
2023-05-03T09:15:57.886Z,45.58
2023-05-03T09:18:31.292Z,45.62
2023-05-03T09:21:05.564Z,45.19
2023-05-03T09:23:37.107Z,45.34
2023-05-03T09:26:09.590Z,44.87
2023-05-03T09:28:46.163Z,43.67
2023-05-03T09:31:18.938Z,43.65
2023-05-03T09:33:50.571Z,43.56
2023-05-03T09:36:23.285Z,42.27
2023-05-03T09:38:59.060Z,42.07
2023-05-03T09:41:34.372Z,42.67
2023-05-03T09:44:09.049Z,43.12
2023-05-03T09:46:40.405Z,43.77
2023-05-03T09:49:15.128Z,43.33
2023-05-03T09:51:49.900Z,43.02
2023-05-03T09:54:25.653Z,42.95
2023-05-03T09:57:01.362Z,42.67
2023-05-03T09:59:36.022Z,43.16
2023-05-03T10:02:08.763Z,42.56
2023-05-03T10:04:48.099Z,42.32
2023-05-03T10:07:23.972Z,42.55
2023-05-03T10:09:59.077Z,41.58
2023-05-03T10:12:36.410Z,41.24
2023-05-03T10:15:14.411Z,41.03
2023-05-03T10:17:52.746Z,41.14
2023-05-03T10:20:31.412Z,41.53
2023-05-03T10:23:29.678Z,41.55
2023-05-03T10:26:25.361Z,41.45
2023-05-03T10:28:58.034Z,41.17
2023-05-03T10:31:50.956Z,39.50
2023-05-03T10:34:25.167Z,39.43
2023-05-03T10:36:58.952Z,38.57
2023-05-03T10:39:31.600Z,39.56
2023-05-03T10:42:09.682Z,40.74
2023-05-03T10:44:54.422Z,40.35
2023-05-03T10:47:30.297Z,38.68
2023-05-03T10:50:34.192Z,38.56
2023-05-03T10:53:09.513Z,37.87
2023-05-03T10:56:03.090Z,38.63
2023-05-03T10:58:45.228Z,38.96
2023-05-03T11:01:19.782Z,39.34
2023-05-03T11:03:56.864Z,39.08
2023-05-03T11:06:34.367Z,39.65
2023-05-03T11:09:08.959Z,38.91
2023-05-03T11:11:41.363Z,38.36
2023-05-03T11:14:14.710Z,37.48
2023-05-03T11:16:51.953Z,37.09
2023-05-03T11:19:26.271Z,37.45
2023-05-03T11:22:02.846Z,38.19
2023-05-03T11:24:34.071Z,37.40
2023-05-03T11:27:08.710Z,37.75
2023-05-03T11:29:42.006Z,37.32
2023-05-03T11:32:16.827Z,37.10
2023-05-03T11:34:58.664Z,38.49
2023-05-03T11:37:30.037Z,38.10
2023-05-03T11:40:05.447Z,37.82
2023-05-03T11:42:55.051Z,37.47
2023-05-03T11:45:31.612Z,38.01
2023-05-03T11:48:02.492Z,38.81
2023-05-03T11:50:47.890Z,38.59
2023-05-03T11:53:23.596Z,37.69
2023-05-03T11:56:03.690Z,36.85
2023-05-03T11:58:37.136Z,36.62
2023-05-03T12:01:10.209Z,37.03
2023-05-03T12:03:52.251Z,36.92
2023-05-03T12:06:28.069Z,36.55
2023-05-03T12:09:03.723Z,36.90
2023-05-03T12:11:48.047Z,37.23
2023-05-03T12:14:22.346Z,37.20
2023-05-03T12:16:56.896Z,36.28
2023-05-03T12:19:33.666Z,36.39
2023-05-03T12:22:25.825Z,37.20
2023-05-03T12:24:59.644Z,36.71
2023-05-03T12:27:36.906Z,35.94
2023-05-03T12:30:13.322Z,35.50
2023-05-03T12:32:45.540Z,36.19
2023-05-03T12:35:21.567Z,35.48
2023-05-03T12:37:55.953Z,35.43
2023-05-03T12:40:34.114Z,35.29
2023-05-03T12:43:10.459Z,35.71
2023-05-03T12:45:46.893Z,36.02
2023-05-03T12:48:24.554Z,35.85
2023-05-03T12:51:17.108Z,35.53
2023-05-03T12:53:54.824Z,36.06
2023-05-03T12:56:32.171Z,36.50
2023-05-03T12:59:39.532Z,36.82
2023-05-03T13:04:56.875Z,36.90
2023-05-03T13:07:29.202Z,37.14
2023-05-03T13:12:54.093Z,36.80
2023-05-03T13:15:29.068Z,36.49
2023-05-03T13:18:01.270Z,35.50
2023-05-03T13:20:33.120Z,35.51
2023-05-03T13:23:05.923Z,35.59
2023-05-03T13:25:39.714Z,35.74
2023-05-03T13:28:10.409Z,35.82
2023-05-03T13:30:42.156Z,35.98
2023-05-03T13:33:12.995Z,36.28
2023-05-03T13:35:48.157Z,36.60
2023-05-03T13:38:22.049Z,36.78
2023-05-03T13:40:56.604Z,37.36
2023-05-03T13:43:30.171Z,37.41
2023-05-03T13:46:05.942Z,37.06
2023-05-03T13:48:37.199Z,37.47
2023-05-03T13:51:10.326Z,37.52
2023-05-03T13:53:41.535Z,37.27
2023-05-03T13:56:12.439Z,37.40
2023-05-03T13:58:44.886Z,36.82
2023-05-03T14:01:17.411Z,36.64
2023-05-03T14:03:50.336Z,36.82
2023-05-03T14:06:24.390Z,35.87
2023-05-03T14:08:58.038Z,36.46
2023-05-03T14:11:30.292Z,36.05
2023-05-03T14:14:04.448Z,36.44
2023-05-03T14:16:41.512Z,36.30
2023-05-03T14:19:17.463Z,36.62
2023-05-03T14:21:51.289Z,36.23
2023-05-03T14:24:24.369Z,36.10
2023-05-03T14:26:53.917Z,36.37
2023-05-03T14:29:25.147Z,36.60
2023-05-03T14:31:59.059Z,36.53
2023-05-03T14:34:29.679Z,36.34
2023-05-03T14:37:00.949Z,36.21
2023-05-03T14:39:34.139Z,36.22
2023-05-03T14:42:06.785Z,36.02
2023-05-03T14:44:37.732Z,35.65
2023-05-03T14:47:10.008Z,36.52
2023-05-03T14:49:43.553Z,36.61
2023-05-03T14:52:17.136Z,35.23
2023-05-03T14:54:50.338Z,35.48
2023-05-03T14:57:24.740Z,35.69
2023-05-03T15:00:02.655Z,35.57
2023-05-03T15:02:36.229Z,35.70
2023-05-03T15:05:10.496Z,35.18
2023-05-03T15:07:46.910Z,35.82
2023-05-03T15:10:18.220Z,35.17
2023-05-03T15:12:51.349Z,35.85
2023-05-03T15:15:24.918Z,36.22
2023-05-03T15:18:00.527Z,35.86
2023-05-03T15:20:34.086Z,36.11
2023-05-03T15:23:08.223Z,36.49
2023-05-03T15:25:40.779Z,36.77
2023-05-03T15:28:13.840Z,36.89
2023-05-03T15:30:47.614Z,37.27
2023-05-03T15:33:23.823Z,37.17
2023-05-03T15:35:58.586Z,37.15
2023-05-03T15:38:30.789Z,37.29
2023-05-03T15:41:03.112Z,37.49
2023-05-03T15:43:35.767Z,37.56
2023-05-03T15:46:09.716Z,37.78
2023-05-03T15:48:43.599Z,37.94
2023-05-03T15:51:20.192Z,38.08
2023-05-03T15:53:54.102Z,37.81
2023-05-03T15:56:27.650Z,37.77
2023-05-03T15:59:01.585Z,37.98
2023-05-03T16:01:37.254Z,38.24
2023-05-03T16:04:09.430Z,37.94
2023-05-03T16:06:42.068Z,38.31
2023-05-03T16:09:16.166Z,38.29
2023-05-03T16:11:48.376Z,38.56
2023-05-03T16:14:21.334Z,37.46
2023-05-03T16:16:55.814Z,37.49
2023-05-03T16:19:30.350Z,38.35
2023-05-03T16:22:04.130Z,38.04
2023-05-03T16:24:40.860Z,37.19
2023-05-03T16:27:16.890Z,37.52
2023-05-03T16:29:49.671Z,37.71
2023-05-03T16:32:24.799Z,37.96
2023-05-03T16:34:59.696Z,37.09
2023-05-03T16:37:33.705Z,36.79
2023-05-03T16:40:11.891Z,36.99
2023-05-03T16:42:44.957Z,36.71
2023-05-03T16:45:23.635Z,36.06
2023-05-03T16:48:02.867Z,35.83
2023-05-03T16:50:38.210Z,35.32
2023-05-03T16:53:16.432Z,35.64
2023-05-03T16:55:48.777Z,35.74
2023-05-03T16:58:23.632Z,35.39
2023-05-03T17:01:05.428Z,35.91
2023-05-03T17:03:45.964Z,36.24
2023-05-03T17:06:26.005Z,36.45
2023-05-03T17:09:02.131Z,36.68
2023-05-03T17:11:38.749Z,36.15
2023-05-03T17:14:10.700Z,36.39
2023-05-03T17:16:44.927Z,36.93
2023-05-03T17:19:19.208Z,37.59
2023-05-03T17:21:51.765Z,37.63
2023-05-03T17:24:24.659Z,37.85
2023-05-03T17:26:58.796Z,37.94
2023-05-03T17:29:31.970Z,37.86
2023-05-03T17:32:07.992Z,38.01
2023-05-03T17:34:48.226Z,38.27
2023-05-03T17:37:23.531Z,38.21
2023-05-03T17:39:59.017Z,38.20
2023-05-03T17:42:33.552Z,38.19
2023-05-03T17:45:10.409Z,38.42
2023-05-03T17:47:42.208Z,38.31
2023-05-03T17:50:17.980Z,38.69
2023-05-03T17:52:51.625Z,38.98
2023-05-03T17:55:26.497Z,39.23
2023-05-03T17:58:00.166Z,39.23
2023-05-03T18:00:32.948Z,39.26
2023-05-03T18:03:08.330Z,39.62
2023-05-03T18:05:40.774Z,39.98
2023-05-03T18:08:13.375Z,40.30
2023-05-03T18:10:46.546Z,40.56
2023-05-03T18:13:18.130Z,40.77
2023-05-03T18:15:51.025Z,40.94
2023-05-03T18:18:24.196Z,41.10
2023-05-03T18:21:02.599Z,41.26
2023-05-03T18:23:36.037Z,41.45
2023-05-03T18:26:08.936Z,42.09
2023-05-03T18:28:42.655Z,42.31
2023-05-03T18:31:23.706Z,42.63
2023-05-03T18:33:55.180Z,42.94
2023-05-03T18:36:28.527Z,42.85
2023-05-03T18:39:01.325Z,42.93
2023-05-03T18:41:33.300Z,43.33
2023-05-03T18:44:07.901Z,43.55
2023-05-03T18:46:40.312Z,43.50
2023-05-03T18:49:12.300Z,43.90
2023-05-03T18:51:47.642Z,44.11
2023-05-03T18:54:19.854Z,44.52
2023-05-03T18:56:52.714Z,44.77
2023-05-03T18:59:25.299Z,45.01
2023-05-03T19:02:00.615Z,45.23
2023-05-03T19:04:33.744Z,45.47
2023-05-03T19:07:06.573Z,45.77
2023-05-03T19:09:39.992Z,46.05
2023-05-03T19:12:11.500Z,46.36
2023-05-03T19:14:44.904Z,46.80
2023-05-03T19:17:17.564Z,47.32
2023-05-03T19:19:47.950Z,47.48
2023-05-03T19:22:24.322Z,47.60
2023-05-03T19:24:59.132Z,48.18
2023-05-03T19:27:40.825Z,48.43
2023-05-03T19:30:15.235Z,48.61
2023-05-03T19:32:50.510Z,48.73
2023-05-03T19:35:22.750Z,49.44
2023-05-03T19:37:55.844Z,49.56
2023-05-03T19:40:29.994Z,50.13
2023-05-03T19:43:03.860Z,50.41
2023-05-03T19:45:42.550Z,50.80
2023-05-03T19:48:16.953Z,51.04
2023-05-03T19:50:47.084Z,51.69
2023-05-03T19:53:19.347Z,52.04
2023-05-03T19:55:58.989Z,52.50
2023-05-03T19:58:32.216Z,52.86
2023-05-03T20:01:06.702Z,52.82
2023-05-03T20:03:39.689Z,53.10
2023-05-03T20:06:11.118Z,53.56
2023-05-03T20:08:42.823Z,54.01
2023-05-03T20:11:16.185Z,54.36
2023-05-03T20:13:49.309Z,54.57
2023-05-03T20:16:33.781Z,54.83
2023-05-03T20:19:07.289Z,54.84
2023-05-03T20:21:39.803Z,55.17
2023-05-03T20:24:12.990Z,55.46
2023-05-03T20:26:46.719Z,56.09
2023-05-03T20:29:18.633Z,56.73
2023-05-03T20:31:54.225Z,57.01
2023-05-03T20:34:26.265Z,57.27
2023-05-03T20:37:00.191Z,57.85
2023-05-03T20:39:34.735Z,57.97
2023-05-03T20:42:08.794Z,57.74
2023-05-03T20:44:40.852Z,57.54
2023-05-03T20:47:13.383Z,57.54
2023-05-03T20:49:45.221Z,57.36
2023-05-03T20:52:19.109Z,57.46
2023-05-03T20:54:51.120Z,57.63
2023-05-03T20:57:24.489Z,57.66
2023-05-03T20:59:57.791Z,57.66
2023-05-03T21:02:31.118Z,58.02
2023-05-03T21:05:03.677Z,57.96
2023-05-03T21:07:35.793Z,57.82
2023-05-03T21:10:11.702Z,57.78
2023-05-03T21:12:44.619Z,57.92
2023-05-03T21:15:17.721Z,57.65
2023-05-03T21:17:58.271Z,58.07
2023-05-03T21:20:31.688Z,58.27
2023-05-03T21:23:09.877Z,58.47
2023-05-03T21:25:44.088Z,59.03
2023-05-03T21:28:18.815Z,59.30
2023-05-03T21:30:50.080Z,59.24
2023-05-03T21:33:26.211Z,59.05
2023-05-03T21:35:58.151Z,59.34
2023-05-03T21:38:31.596Z,59.11
2023-05-03T21:41:08.445Z,59.27
2023-05-03T21:43:45.562Z,59.47
2023-05-03T21:46:17.772Z,60.67
2023-05-03T21:48:48.182Z,60.26
2023-05-03T21:51:22.706Z,60.35
2023-05-03T21:53:55.068Z,60.65
2023-05-03T21:56:28.464Z,60.38
2023-05-03T21:59:00.050Z,61.01
2023-05-03T22:01:40.600Z,60.84
2023-05-03T22:04:17.423Z,60.75
2023-05-03T22:06:51.484Z,60.82
2023-05-03T22:09:24.874Z,60.89
2023-05-03T22:11:59.385Z,61.82
2023-05-03T22:14:31.549Z,61.92
2023-05-03T22:17:04.833Z,62.21
2023-05-03T22:19:41.642Z,62.70
2023-05-03T22:22:18.060Z,62.35
2023-05-03T22:24:50.981Z,62.33
2023-05-03T22:27:25.122Z,62.58
2023-05-03T22:29:57.675Z,62.76
2023-05-03T22:32:35.216Z,63.18
2023-05-03T22:35:11.085Z,63.03
2023-05-03T22:37:44.367Z,62.96
2023-05-03T22:40:17.972Z,63.36
2023-05-03T22:42:50.671Z,63.06
2023-05-03T22:45:23.677Z,62.97
2023-05-03T22:47:56.904Z,63.26
2023-05-03T22:50:29.676Z,63.27
2023-05-03T22:53:02.801Z,63.14
2023-05-03T22:55:35.519Z,63.25
2023-05-03T22:58:07.087Z,62.79
2023-05-03T23:00:40.490Z,62.81
2023-05-03T23:03:15.833Z,62.87
2023-05-03T23:05:54.769Z,63.04
2023-05-03T23:08:29.130Z,62.98
2023-05-03T23:11:02.723Z,63.20
2023-05-03T23:13:35.076Z,63.70
2023-05-03T23:16:10.618Z,63.80
2023-05-03T23:18:44.010Z,63.97
2023-05-03T23:21:18.832Z,64.35
2023-05-03T23:23:55.103Z,64.59
2023-05-03T23:26:29.558Z,64.48
2023-05-03T23:29:03.869Z,65.07
2023-05-03T23:31:36.910Z,65.03
2023-05-03T23:34:09.691Z,64.89
2023-05-03T23:36:43.405Z,64.91
2023-05-03T23:39:14.453Z,64.88
2023-05-03T23:41:48.298Z,65.33
2023-05-03T23:44:21.380Z,65.19
2023-05-03T23:46:58.486Z,65.60
2023-05-03T23:49:30.634Z,65.56
2023-05-03T23:52:04.131Z,65.38
2023-05-03T23:54:40.972Z,65.52
2023-05-03T23:57:11.903Z,65.30
2023-05-03T23:59:44.996Z,65.43
